Terminal Aerodrome Forecast
Issued by NWS

Home | Current Version | Previous Version | Text Only | Print | Product List | Glossary On
Versions: 1 2 3 4 5 6 7 8 9 10 11 12 13
000
FTUS44 KMAF 181600 AAA
TAFINK
TAF AMD
KINK 181652Z 1817/1912 10005KT P6SM SCT035 BKN120
      TEMPO 1817/1819 BKN020
     FM182000 10008KT P6SM SCT035 BKN130
     FM190100 11010KT P6SM OVC035=

USA.gov is the U.S. government's official web portal to all federal, state and local government web resources and services.